Wetterdaten: Woche 29.05.06 - 04.06.06 (KW22)
Datum Zeit Temperatur Luftfeuchte Luftdruck Windrichtung Wind
29.05.2006 00:00 11,6 C 82 % 1018 hPa N 0,0 km/h (0 Bft)
29.05.2006 01:00 11,3 C 83 % 1018 hPa W 0,7 km/h (0 Bft)
29.05.2006 02:00 11,2 C 84 % 1018 hPa W-SW 1,7 km/h (1 Bft)
29.05.2006 03:00 11,3 C 78 % 1017 hPa W-SW 1,4 km/h (1 Bft)
29.05.2006 04:00 11,4 C 72 % 1016 hPa W 5,5 km/h (1 Bft)
29.05.2006 05:00 11,1 C 79 % 1015 hPa S 4,9 km/h (1 Bft)
29.05.2006 06:00 10,4 C 92 % 1015 hPa S 7,0 km/h (2 Bft)
29.05.2006 07:00 10,2 C 97 % 1015 hPa S 11,9 km/h (2 Bft)
29.05.2006 08:00 10,1 C 94 % 1014 hPa S-SW 16,6 km/h (3 Bft)
29.05.2006 09:00 11,1 C 86 % 1013 hPa S-SW 17,5 km/h (3 Bft)
29.05.2006 10:00 11,7 C 82 % 1012 hPa S-SW 13,9 km/h (3 Bft)
29.05.2006 11:00 12,6 C 74 % 1011 hPa W-SW 12,2 km/h (2 Bft)
29.05.2006 12:00 12,1 C 77 % 1010 hPa W 8,0 km/h (2 Bft)
29.05.2006 13:00 10,9 C 84 % 1009 hPa NW 14,3 km/h (3 Bft)
29.05.2006 14:00 9,6 C 89 % 1009 hPa N-NW 14,5 km/h (3 Bft)
29.05.2006 15:00 8,4 C 88 % 1010 hPa N-NW 14,5 km/h (3 Bft)
29.05.2006 16:00 8,3 C 89 % 1011 hPa W 11,1 km/h (2 Bft)
29.05.2006 17:00 8,7 C 89 % 1011 hPa W-SW 8,7 km/h (2 Bft)
29.05.2006 18:00 8,8 C 90 % 1010 hPa W-SW 10,6 km/h (2 Bft)
29.05.2006 19:00 9,1 C 83 % 1010 hPa W-SW 10,2 km/h (2 Bft)
29.05.2006 20:00 8,5 C 86 % 1010 hPa S-SW 9,4 km/h (2 Bft)
29.05.2006 21:00 8,3 C 88 % 1010 hPa W-SW 11,2 km/h (2 Bft)
29.05.2006 22:00 8,2 C 92 % 1010 hPa W 9,5 km/h (2 Bft)
29.05.2006 23:00 7,1 C 90 % 1010 hPa W-SW 5,7 km/h (1 Bft)
30.05.2006 00:00 6,7 C 90 % 1010 hPa W-SW 11,2 km/h (2 Bft)
30.05.2006 01:00 6,7 C 92 % 1010 hPa W-SW 8,9 km/h (2 Bft)
30.05.2006 02:00 6,6 C 95 % 1009 hPa W-SW 11,4 km/h (2 Bft)
30.05.2006 03:00 6,3 C 93 % 1009 hPa W 8,3 km/h (2 Bft)
30.05.2006 04:00 6,1 C 93 % 1009 hPa W 3,5 km/h (1 Bft)
30.05.2006 05:00 5,9 C 94 % 1010 hPa W-SW 6,8 km/h (2 Bft)
30.05.2006 06:00 4,8 C 92 % 1010 hPa W 15,7 km/h (3 Bft)
30.05.2006 07:00 4,8 C 94 % 1011 hPa W 14,3 km/h (3 Bft)
30.05.2006 08:00 5,6 C 84 % 1011 hPa W 14,5 km/h (3 Bft)
30.05.2006 09:00 7,2 C 70 % 1011 hPa W 16,7 km/h (3 Bft)
30.05.2006 10:00 7,9 C 62 % 1011 hPa W 20,0 km/h (4 Bft)
30.05.2006 11:00 8,3 C 57 % 1011 hPa W 16,0 km/h (3 Bft)
30.05.2006 12:00 6,4 C 75 % 1011 hPa W 15,1 km/h (3 Bft)
30.05.2006 13:00 7,7 C 70 % 1011 hPa W 18,6 km/h (3 Bft)
30.05.2006 14:00 7,9 C 73 % 1011 hPa W 18,5 km/h (3 Bft)
30.05.2006 15:00 7,6 C 71 % 1012 hPa W 18,0 km/h (3 Bft)
30.05.2006 16:00 8,4 C 62 % 1012 hPa W 14,8 km/h (3 Bft)
30.05.2006 17:00 6,6 C 83 % 1012 hPa NW 12,6 km/h (3 Bft)
30.05.2006 18:00 8,8 C 70 % 1012 hPa W 10,1 km/h (2 Bft)
30.05.2006 19:00 6,7 C 78 % 1012 hPa W-SW 12,4 km/h (3 Bft)
30.05.2006 20:00 5,3 C 82 % 1013 hPa W-SW 10,9 km/h (2 Bft)
30.05.2006 21:00 5,1 C 85 % 1013 hPa W-SW 13,1 km/h (3 Bft)
30.05.2006 22:00 5,1 C 85 % 1013 hPa W-SW 11,4 km/h (2 Bft)
30.05.2006 23:00 4,7 C 87 % 1013 hPa W 8,1 km/h (2 Bft)
31.05.2006 00:00 4,5 C 84 % 1014 hPa W-SW 14,3 km/h (3 Bft)
31.05.2006 01:00 4,2 C 88 % 1013 hPa W-SW 10,0 km/h (2 Bft)
31.05.2006 02:00 4,1 C 90 % 1013 hPa W-SW 7,1 km/h (2 Bft)
31.05.2006 03:00 4,3 C 92 % 1013 hPa W-SW 4,9 km/h (1 Bft)
31.05.2006 04:00 4,3 C 93 % 1013 hPa W 8,4 km/h (2 Bft)
31.05.2006 05:00 4,1 C 93 % 1013 hPa W 5,0 km/h (1 Bft)
31.05.2006 06:00 4,1 C 93 % 1014 hPa W 4,8 km/h (1 Bft)
31.05.2006 07:00 4,5 C 92 % 1014 hPa W 3,6 km/h (1 Bft)
31.05.2006 08:00 5,1 C 88 % 1015 hPa NW 7,9 km/h (2 Bft)
31.05.2006 09:00 6,3 C 79 % 1015 hPa NW 8,3 km/h (2 Bft)
31.05.2006 10:00 7,5 C 70 % 1016 hPa W 9,4 km/h (2 Bft)
31.05.2006 11:00 8,2 C 62 % 1016 hPa W-NW 13,5 km/h (3 Bft)
31.05.2006 12:00 8,0 C 66 % 1017 hPa W-NW 12,7 km/h (3 Bft)
31.05.2006 13:00 9,3 C 56 % 1017 hPa NW 16,1 km/h (3 Bft)
31.05.2006 14:00 8,8 C 59 % 1017 hPa NW 13,3 km/h (3 Bft)
31.05.2006 15:00 11,1 C 50 % 1017 hPa N 14,7 km/h (3 Bft)
31.05.2006 16:00 10,8 C 46 % 1017 hPa W 15,5 km/h (3 Bft)
31.05.2006 17:00 10,8 C 45 % 1017 hPa W-NW 15,1 km/h (3 Bft)
31.05.2006 18:00 11,4 C 41 % 1017 hPa W 16,7 km/h (3 Bft)
31.05.2006 19:00 10,5 C 44 % 1018 hPa W-NW 13,4 km/h (3 Bft)
31.05.2006 20:00 8,8 C 53 % 1018 hPa W 7,8 km/h (2 Bft)
31.05.2006 21:00 8,2 C 57 % 1019 hPa W 8,0 km/h (2 Bft)
31.05.2006 22:00 7,6 C 62 % 1020 hPa W-SW 4,9 km/h (1 Bft)
31.05.2006 23:00 7,2 C 66 % 1020 hPa W-SW 6,9 km/h (2 Bft)
01.06.2006 00:00 7,1 C 70 % 1020 hPa W-SW 2,8 km/h (1 Bft)
01.06.2006 01:00 6,8 C 73 % 1020 hPa W-SW 8,0 km/h (2 Bft)
01.06.2006 02:00 6,6 C 77 % 1020 hPa W-SW 9,4 km/h (2 Bft)
01.06.2006 03:00 6,3 C 81 % 1020 hPa W-SW 8,0 km/h (2 Bft)
01.06.2006 04:00 6,2 C 83 % 1020 hPa W-SW 8,3 km/h (2 Bft)
01.06.2006 05:00 6,1 C 86 % 1020 hPa W-SW 3,8 km/h (1 Bft)
01.06.2006 06:00 6,0 C 88 % 1020 hPa W-SW 9,0 km/h (2 Bft)
01.06.2006 07:00 6,3 C 88 % 1021 hPa S-SW 6,8 km/h (2 Bft)
01.06.2006 08:00 6,7 C 86 % 1021 hPa W-SW 9,0 km/h (2 Bft)
01.06.2006 09:00 7,3 C 86 % 1021 hPa W-SW 8,1 km/h (2 Bft)
01.06.2006 10:00 8,3 C 79 % 1021 hPa W-SW 11,0 km/h (2 Bft)
01.06.2006 11:00 7,4 C 76 % 1021 hPa W 11,7 km/h (2 Bft)
01.06.2006 12:00 7,2 C 88 % 1021 hPa W 7,1 km/h (2 Bft)
01.06.2006 13:00 8,2 C 81 % 1020 hPa W 11,3 km/h (2 Bft)
01.06.2006 14:00 8,0 C 71 % 1020 hPa W 13,8 km/h (3 Bft)
01.06.2006 15:00 7,5 C 66 % 1021 hPa W 12,7 km/h (3 Bft)
01.06.2006 16:00 7,8 C 67 % 1020 hPa W 16,2 km/h (3 Bft)
01.06.2006 17:00 7,5 C 64 % 1020 hPa NW 19,9 km/h (4 Bft)
01.06.2006 18:00 6,7 C 67 % 1021 hPa W 17,3 km/h (3 Bft)
01.06.2006 19:00 6,1 C 73 % 1021 hPa W 8,6 km/h (2 Bft)
01.06.2006 20:00 6,0 C 74 % 1022 hPa W 2,5 km/h (1 Bft)
01.06.2006 21:00 5,4 C 77 % 1022 hPa S-SW 2,3 km/h (1 Bft)
01.06.2006 22:00 4,8 C 80 % 1023 hPa W 4,5 km/h (1 Bft)
01.06.2006 23:00 4,4 C 82 % 1023 hPa W-SW 0,9 km/h (0 Bft)
02.06.2006 00:00 4,4 C 83 % 1023 hPa W 7,6 km/h (2 Bft)
02.06.2006 01:00 4,4 C 84 % 1023 hPa S-SW 3,6 km/h (1 Bft)
02.06.2006 02:00 4,4 C 88 % 1023 hPa S-SW 6,1 km/h (2 Bft)
02.06.2006 03:00 4,3 C 90 % 1023 hPa S 4,4 km/h (1 Bft)
02.06.2006 04:00 4,1 C 92 % 1023 hPa W 6,4 km/h (2 Bft)
02.06.2006 05:00 3,4 C 92 % 1023 hPa W 3,6 km/h (1 Bft)
02.06.2006 06:00 3,3 C 93 % 1023 hPa N 0,2 km/h (0 Bft)
02.06.2006 07:00 3,5 C 95 % 1023 hPa SO 3,1 km/h (1 Bft)
02.06.2006 08:00 4,2 C 97 % 1024 hPa S 3,4 km/h (1 Bft)
02.06.2006 09:00 5,4 C 94 % 1024 hPa S 4,3 km/h (1 Bft)
02.06.2006 10:00 7,1 C 79 % 1024 hPa O 5,0 km/h (1 Bft)
02.06.2006 11:00 7,2 C 74 % 1025 hPa O 5,2 km/h (1 Bft)
02.06.2006 12:00 8,1 C 70 % 1025 hPa O-NO 7,3 km/h (2 Bft)
02.06.2006 13:00 8,7 C 64 % 1025 hPa N 4,5 km/h (1 Bft)
02.06.2006 14:00 10,7 C 55 % 1025 hPa N-NO 6,6 km/h (2 Bft)
02.06.2006 15:00 11,3 C 51 % 1025 hPa N-NO 12,0 km/h (2 Bft)
02.06.2006 16:00 12,0 C 48 % 1025 hPa N 10,7 km/h (2 Bft)
02.06.2006 17:00 11,7 C 48 % 1025 hPa N-NO 12,5 km/h (3 Bft)
02.06.2006 18:00 11,9 C 47 % 1025 hPa N-NO 12,9 km/h (3 Bft)
02.06.2006 19:00 11,3 C 50 % 1026 hPa N-NO 11,0 km/h (2 Bft)
02.06.2006 20:00 10,7 C 53 % 1026 hPa N 11,6 km/h (2 Bft)
02.06.2006 21:00 9,7 C 59 % 1026 hPa N-NW 6,2 km/h (2 Bft)
02.06.2006 22:00 8,3 C 66 % 1026 hPa N-NW 0,6 km/h (0 Bft)
02.06.2006 23:00 7,3 C 73 % 1026 hPa NW 4,0 km/h (1 Bft)
03.06.2006 00:00 6,4 C 77 % 1026 hPa N-NW 7,0 km/h (2 Bft)
03.06.2006 01:00 5,8 C 78 % 1026 hPa N-NW 6,3 km/h (2 Bft)
03.06.2006 02:00 5,2 C 80 % 1026 hPa N-NW 7,6 km/h (2 Bft)
03.06.2006 03:00 4,7 C 83 % 1026 hPa N-NW 9,4 km/h (2 Bft)
03.06.2006 04:00 4,4 C 84 % 1025 hPa N-NW 7,7 km/h (2 Bft)
03.06.2006 05:00 3,5 C 84 % 1026 hPa N 0,0 km/h (0 Bft)
03.06.2006 06:00 3,1 C 87 % 1026 hPa N 0,0 km/h (0 Bft)
03.06.2006 07:00 4,8 C 90 % 1026 hPa N 2,1 km/h (1 Bft)
03.06.2006 08:00 8,5 C 71 % 1026 hPa N 10,4 km/h (2 Bft)
03.06.2006 09:00 11,4 C 54 % 1026 hPa N-NO 17,0 km/h (3 Bft)
03.06.2006 10:00 13,7 C 47 % 1026 hPa N-NO 15,9 km/h (3 Bft)
03.06.2006 11:00 14,3 C 43 % 1025 hPa N 14,5 km/h (3 Bft)
03.06.2006 12:00 14,9 C 42 % 1025 hPa NO 12,3 km/h (3 Bft)
03.06.2006 13:00 15,4 C 40 % 1025 hPa N 13,4 km/h (3 Bft)
03.06.2006 14:00 15,9 C 38 % 1024 hPa N 13,5 km/h (3 Bft)
03.06.2006 15:00 15,7 C 38 % 1024 hPa NO 12,4 km/h (3 Bft)
03.06.2006 16:00 15,3 C 39 % 1024 hPa N 10,4 km/h (2 Bft)
03.06.2006 17:00 15,9 C 39 % 1024 hPa N 9,4 km/h (2 Bft)
03.06.2006 18:00 15,2 C 41 % 1024 hPa N 10,1 km/h (2 Bft)
03.06.2006 19:00 14,4 C 44 % 1024 hPa N-NW 11,6 km/h (2 Bft)
03.06.2006 20:00 13,4 C 50 % 1023 hPa N-NW 12,6 km/h (3 Bft)
03.06.2006 21:00 11,9 C 61 % 1024 hPa N 14,2 km/h (3 Bft)
03.06.2006 22:00 10,8 C 67 % 1024 hPa N 11,0 km/h (2 Bft)
03.06.2006 23:00 10,2 C 71 % 1024 hPa N 3,4 km/h (1 Bft)
04.06.2006 00:00 9,6 C 76 % 1024 hPa N 0,0 km/h (0 Bft)
04.06.2006 01:00 9,3 C 82 % 1024 hPa N 0,0 km/h (0 Bft)
04.06.2006 02:00 9,1 C 86 % 1023 hPa N 0,0 km/h (0 Bft)
04.06.2006 03:00 8,9 C 92 % 1023 hPa S 2,2 km/h (1 Bft)
04.06.2006 04:00 8,7 C 96 % 1022 hPa S 1,7 km/h (1 Bft)
04.06.2006 05:00 8,8 C 96 % 1022 hPa S 3,5 km/h (1 Bft)
04.06.2006 06:00 8,9 C 96 % 1022 hPa S 5,1 km/h (1 Bft)
04.06.2006 07:00 9,2 C 95 % 1022 hPa S-SW 7,3 km/h (2 Bft)
04.06.2006 08:00 9,4 C 95 % 1022 hPa S-SW 6,2 km/h (2 Bft)
04.06.2006 09:00 9,7 C 95 % 1022 hPa W-SW 8,1 km/h (2 Bft)
04.06.2006 10:00 10,2 C 94 % 1022 hPa W-SW 10,3 km/h (2 Bft)
04.06.2006 11:00 10,7 C 91 % 1022 hPa W-SW 11,9 km/h (2 Bft)
04.06.2006 12:00 11,2 C 89 % 1022 hPa W-SW 8,6 km/h (2 Bft)
04.06.2006 13:00 12,1 C 91 % 1021 hPa S-SW 11,4 km/h (2 Bft)
04.06.2006 14:00 12,5 C 88 % 1021 hPa S-SW 13,2 km/h (3 Bft)
04.06.2006 15:00 13,3 C 86 % 1020 hPa S-SW 13,8 km/h (3 Bft)
04.06.2006 16:00 14,2 C 74 % 1020 hPa NW 9,8 km/h (2 Bft)
04.06.2006 17:00 15,9 C 52 % 1020 hPa NW 16,8 km/h (3 Bft)
04.06.2006 18:00 14,8 C 53 % 1020 hPa N-NW 18,5 km/h (3 Bft)
04.06.2006 19:00 13,6 C 54 % 1020 hPa N 16,2 km/h (3 Bft)
04.06.2006 20:00 11,8 C 58 % 1021 hPa NW 13,0 km/h (3 Bft)
04.06.2006 21:00 10,2 C 59 % 1022 hPa N-NW 14,8 km/h (3 Bft)
04.06.2006 22:00 9,0 C 64 % 1022 hPa N 2,7 km/h (1 Bft)
04.06.2006 23:00 7,9 C 73 % 1023 hPa W-NW 0,4 km/h (0 Bft)
Min-Datum _ 03.06.06 03.06.06 29.05.06 - 29.05.06
_ Min-Zeit 05:57 13:49 13:03 - 00:00
Minimum _ 2,8 C 37 % 1009 hPa - 0,0 km/h (0 Bft)
Max-Datum _ 03.06.06 02.06.06 02.06.06 - 30.05.06
_ Max-Zeit 15:00 08:38 19:33 - 14:55
Maximum _ 16,5 C 98 % 1026 hPa - 38,3 km/h
W (5 Bft)
Durchschnitt _ 8,5 C 75 % 1019 hPa W 9,3 km/h (2 Bft)

Durchschnitt Minimum Temp.8,0 C
Durchschnitt Maximum Temp.8,9 C